sensor_id;sensor_type;location;lat;lon;timestamp;P1;durP1;ratioP1;P2;durP2;ratioP2
15831;SDS011;8016;49.928;9.372;2023-05-23T00:01:39;39.80;;;29.67;;
15831;SDS011;8016;49.928;9.372;2023-05-23T00:04:06;34.73;;;27.90;;
15831;SDS011;8016;49.928;9.372;2023-05-23T00:06:33;29.30;;;26.10;;
15831;SDS011;8016;49.928;9.372;2023-05-23T00:09:00;33.27;;;26.63;;
15831;SDS011;8016;49.928;9.372;2023-05-23T00:11:26;30.57;;;24.77;;
15831;SDS011;8016;49.928;9.372;2023-05-23T00:13:53;30.43;;;24.33;;
15831;SDS011;8016;49.928;9.372;2023-05-23T00:16:19;32.33;;;24.67;;
15831;SDS011;8016;49.928;9.372;2023-05-23T00:18:46;30.67;;;24.33;;
15831;SDS011;8016;49.928;9.372;2023-05-23T00:21:14;29.70;;;25.33;;
15831;SDS011;8016;49.928;9.372;2023-05-23T00:23:40;32.27;;;26.33;;
15831;SDS011;8016;49.928;9.372;2023-05-23T00:26:07;35.10;;;29.13;;
15831;SDS011;8016;49.928;9.372;2023-05-23T00:28:33;41.30;;;31.33;;
15831;SDS011;8016;49.928;9.372;2023-05-23T00:30:59;34.73;;;27.67;;
15831;SDS011;8016;49.928;9.372;2023-05-23T00:33:25;34.50;;;28.60;;
15831;SDS011;8016;49.928;9.372;2023-05-23T00:35:51;32.00;;;26.80;;
15831;SDS011;8016;49.928;9.372;2023-05-23T00:38:17;33.13;;;28.77;;
15831;SDS011;8016;49.928;9.372;2023-05-23T00:40:43;30.70;;;24.83;;
15831;SDS011;8016;49.928;9.372;2023-05-23T00:43:09;27.80;;;21.40;;
15831;SDS011;8016;49.928;9.372;2023-05-23T00:45:36;26.20;;;22.13;;
15831;SDS011;8016;49.928;9.372;2023-05-23T00:48:02;31.67;;;24.80;;
15831;SDS011;8016;49.928;9.372;2023-05-23T00:50:29;33.33;;;28.43;;
15831;SDS011;8016;49.928;9.372;2023-05-23T00:52:55;28.37;;;24.27;;
15831;SDS011;8016;49.928;9.372;2023-05-23T00:55:23;31.33;;;26.37;;
15831;SDS011;8016;49.928;9.372;2023-05-23T00:57:49;35.60;;;26.77;;
15831;SDS011;8016;49.928;9.372;2023-05-23T01:00:15;36.03;;;28.77;;
15831;SDS011;8016;49.928;9.372;2023-05-23T01:02:45;30.50;;;24.00;;
15831;SDS011;8016;49.928;9.372;2023-05-23T01:05:11;40.47;;;34.27;;
15831;SDS011;8016;49.928;9.372;2023-05-23T01:07:48;30.03;;;24.90;;
15831;SDS011;8016;49.928;9.372;2023-05-23T01:10:15;48.57;;;41.10;;
15831;SDS011;8016;49.928;9.372;2023-05-23T01:15:18;50.40;;;41.67;;
15831;SDS011;8016;49.928;9.372;2023-05-23T01:20:11;43.53;;;38.13;;
15831;SDS011;8016;49.928;9.372;2023-05-23T01:27:46;49.43;;;40.10;;
15831;SDS011;8016;49.928;9.372;2023-05-23T01:30:14;47.20;;;39.63;;
15831;SDS011;8016;49.928;9.372;2023-05-23T01:32:42;45.97;;;38.27;;
15831;SDS011;8016;49.928;9.372;2023-05-23T01:35:09;47.93;;;37.30;;
15831;SDS011;8016;49.928;9.372;2023-05-23T01:37:35;47.73;;;38.37;;
15831;SDS011;8016;49.928;9.372;2023-05-23T01:40:01;47.13;;;39.10;;
15831;SDS011;8016;49.928;9.372;2023-05-23T01:42:27;52.40;;;41.17;;
15831;SDS011;8016;49.928;9.372;2023-05-23T01:44:53;45.80;;;38.63;;
15831;SDS011;8016;49.928;9.372;2023-05-23T01:47:23;47.83;;;40.17;;
15831;SDS011;8016;49.928;9.372;2023-05-23T01:49:49;50.30;;;40.73;;
15831;SDS011;8016;49.928;9.372;2023-05-23T01:52:15;52.80;;;40.93;;
15831;SDS011;8016;49.928;9.372;2023-05-23T01:54:41;49.83;;;40.30;;
15831;SDS011;8016;49.928;9.372;2023-05-23T01:57:08;56.47;;;42.33;;
15831;SDS011;8016;49.928;9.372;2023-05-23T01:59:34;53.53;;;42.17;;
15831;SDS011;8016;49.928;9.372;2023-05-23T02:02:02;55.33;;;43.10;;
15831;SDS011;8016;49.928;9.372;2023-05-23T02:04:28;62.93;;;46.40;;
15831;SDS011;8016;49.928;9.372;2023-05-23T02:06:54;58.73;;;45.73;;
15831;SDS011;8016;49.928;9.372;2023-05-23T02:09:20;54.63;;;45.97;;
15831;SDS011;8016;49.928;9.372;2023-05-23T02:11:46;63.63;;;48.50;;
15831;SDS011;8016;49.928;9.372;2023-05-23T02:14:12;58.63;;;47.03;;
15831;SDS011;8016;49.928;9.372;2023-05-23T02:16:38;56.07;;;44.77;;
15831;SDS011;8016;49.928;9.372;2023-05-23T02:19:04;58.20;;;45.40;;
15831;SDS011;8016;49.928;9.372;2023-05-23T02:21:30;54.27;;;44.63;;
15831;SDS011;8016;49.928;9.372;2023-05-23T02:23:56;57.40;;;44.70;;
15831;SDS011;8016;49.928;9.372;2023-05-23T02:26:22;49.27;;;42.07;;
15831;SDS011;8016;49.928;9.372;2023-05-23T02:28:48;44.67;;;38.80;;
15831;SDS011;8016;49.928;9.372;2023-05-23T02:31:14;45.60;;;39.80;;
15831;SDS011;8016;49.928;9.372;2023-05-23T02:33:41;42.50;;;37.93;;
15831;SDS011;8016;49.928;9.372;2023-05-23T02:36:07;41.10;;;36.60;;
15831;SDS011;8016;49.928;9.372;2023-05-23T02:38:33;40.17;;;35.43;;
15831;SDS011;8016;49.928;9.372;2023-05-23T02:40:59;41.97;;;34.60;;
15831;SDS011;8016;49.928;9.372;2023-05-23T02:43:25;38.27;;;34.17;;
15831;SDS011;8016;49.928;9.372;2023-05-23T02:45:51;36.83;;;33.07;;
15831;SDS011;8016;49.928;9.372;2023-05-23T02:48:17;35.90;;;32.20;;
15831;SDS011;8016;49.928;9.372;2023-05-23T02:50:43;36.00;;;32.43;;
15831;SDS011;8016;49.928;9.372;2023-05-23T02:53:08;35.87;;;32.23;;
15831;SDS011;8016;49.928;9.372;2023-05-23T02:55:34;36.33;;;32.53;;
15831;SDS011;8016;49.928;9.372;2023-05-23T02:58:02;35.63;;;31.83;;
15831;SDS011;8016;49.928;9.372;2023-05-23T03:00:29;35.17;;;31.37;;
15831;SDS011;8016;49.928;9.372;2023-05-23T03:02:56;34.10;;;30.60;;
15831;SDS011;8016;49.928;9.372;2023-05-23T03:05:22;32.87;;;29.57;;
15831;SDS011;8016;49.928;9.372;2023-05-23T03:07:48;32.90;;;29.67;;
15831;SDS011;8016;49.928;9.372;2023-05-23T03:10:16;31.40;;;28.30;;
15831;SDS011;8016;49.928;9.372;2023-05-23T03:12:42;31.57;;;28.47;;
15831;SDS011;8016;49.928;9.372;2023-05-23T03:15:08;33.03;;;29.73;;
15831;SDS011;8016;49.928;9.372;2023-05-23T03:17:34;32.87;;;29.40;;
15831;SDS011;8016;49.928;9.372;2023-05-23T03:20:00;31.00;;;27.93;;
15831;SDS011;8016;49.928;9.372;2023-05-23T03:22:27;31.40;;;28.40;;
15831;SDS011;8016;49.928;9.372;2023-05-23T03:24:53;31.77;;;28.43;;
15831;SDS011;8016;49.928;9.372;2023-05-23T03:27:19;29.70;;;26.50;;
15831;SDS011;8016;49.928;9.372;2023-05-23T03:29:45;33.10;;;29.73;;
15831;SDS011;8016;49.928;9.372;2023-05-23T03:32:12;32.83;;;29.60;;
15831;SDS011;8016;49.928;9.372;2023-05-23T03:34:38;31.77;;;28.33;;
15831;SDS011;8016;49.928;9.372;2023-05-23T03:37:04;31.57;;;28.47;;
15831;SDS011;8016;49.928;9.372;2023-05-23T03:39:30;32.17;;;29.07;;
15831;SDS011;8016;49.928;9.372;2023-05-23T03:41:56;30.50;;;27.63;;
15831;SDS011;8016;49.928;9.372;2023-05-23T03:44:22;30.50;;;27.50;;
15831;SDS011;8016;49.928;9.372;2023-05-23T03:46:48;30.47;;;27.67;;
15831;SDS011;8016;49.928;9.372;2023-05-23T03:49:14;31.70;;;28.60;;
15831;SDS011;8016;49.928;9.372;2023-05-23T03:51:40;31.57;;;28.17;;
15831;SDS011;8016;49.928;9.372;2023-05-23T03:54:06;33.03;;;29.70;;
15831;SDS011;8016;49.928;9.372;2023-05-23T03:56:31;32.53;;;29.40;;
15831;SDS011;8016;49.928;9.372;2023-05-23T03:58:57;32.97;;;29.63;;
15831;SDS011;8016;49.928;9.372;2023-05-23T04:01:24;35.17;;;31.57;;
15831;SDS011;8016;49.928;9.372;2023-05-23T04:03:49;34.30;;;30.73;;
15831;SDS011;8016;49.928;9.372;2023-05-23T04:06:16;32.87;;;29.77;;
15831;SDS011;8016;49.928;9.372;2023-05-23T04:08:44;35.90;;;31.53;;
15831;SDS011;8016;49.928;9.372;2023-05-23T04:11:10;34.30;;;30.87;;
15831;SDS011;8016;49.928;9.372;2023-05-23T04:13:36;34.87;;;31.47;;
15831;SDS011;8016;49.928;9.372;2023-05-23T04:16:02;32.27;;;29.07;;
15831;SDS011;8016;49.928;9.372;2023-05-23T04:18:29;33.97;;;30.73;;
15831;SDS011;8016;49.928;9.372;2023-05-23T04:20:57;33.30;;;29.93;;
15831;SDS011;8016;49.928;9.372;2023-05-23T04:23:23;33.97;;;30.30;;
15831;SDS011;8016;49.928;9.372;2023-05-23T04:25:49;35.10;;;31.87;;
15831;SDS011;8016;49.928;9.372;2023-05-23T04:28:15;32.70;;;29.40;;
15831;SDS011;8016;49.928;9.372;2023-05-23T04:30:42;34.10;;;30.40;;
15831;SDS011;8016;49.928;9.372;2023-05-23T04:33:08;32.97;;;29.40;;
15831;SDS011;8016;49.928;9.372;2023-05-23T04:35:35;31.60;;;28.60;;
15831;SDS011;8016;49.928;9.372;2023-05-23T04:38:04;35.83;;;30.73;;
15831;SDS011;8016;49.928;9.372;2023-05-23T04:40:30;31.20;;;27.80;;
15831;SDS011;8016;49.928;9.372;2023-05-23T04:42:56;30.13;;;27.30;;
15831;SDS011;8016;49.928;9.372;2023-05-23T04:45:22;29.93;;;26.83;;
15831;SDS011;8016;49.928;9.372;2023-05-23T04:47:48;28.77;;;26.00;;
15831;SDS011;8016;49.928;9.372;2023-05-23T04:50:14;27.43;;;24.77;;
15831;SDS011;8016;49.928;9.372;2023-05-23T04:52:40;26.67;;;24.00;;
15831;SDS011;8016;49.928;9.372;2023-05-23T04:55:06;24.67;;;22.37;;
15831;SDS011;8016;49.928;9.372;2023-05-23T04:57:33;26.77;;;23.87;;
15831;SDS011;8016;49.928;9.372;2023-05-23T04:59:59;25.63;;;23.23;;
15831;SDS011;8016;49.928;9.372;2023-05-23T05:02:25;26.10;;;23.40;;
15831;SDS011;8016;49.928;9.372;2023-05-23T05:04:51;25.00;;;22.63;;
15831;SDS011;8016;49.928;9.372;2023-05-23T05:07:17;26.50;;;23.80;;
15831;SDS011;8016;49.928;9.372;2023-05-23T05:09:43;25.17;;;22.47;;
15831;SDS011;8016;49.928;9.372;2023-05-23T05:12:10;25.30;;;22.70;;
15831;SDS011;8016;49.928;9.372;2023-05-23T05:14:36;23.83;;;21.47;;
15831;SDS011;8016;49.928;9.372;2023-05-23T05:17:02;22.77;;;20.37;;
15831;SDS011;8016;49.928;9.372;2023-05-23T05:19:28;23.53;;;21.10;;
15831;SDS011;8016;49.928;9.372;2023-05-23T05:21:54;23.83;;;21.50;;
15831;SDS011;8016;49.928;9.372;2023-05-23T05:24:21;22.53;;;19.87;;
15831;SDS011;8016;49.928;9.372;2023-05-23T05:26:47;20.93;;;19.00;;
15831;SDS011;8016;49.928;9.372;2023-05-23T05:29:13;20.57;;;18.77;;
15831;SDS011;8016;49.928;9.372;2023-05-23T05:31:40;21.33;;;19.13;;
15831;SDS011;8016;49.928;9.372;2023-05-23T05:34:07;20.37;;;18.47;;
15831;SDS011;8016;49.928;9.372;2023-05-23T05:36:33;20.80;;;17.63;;
15831;SDS011;8016;49.928;9.372;2023-05-23T05:38:59;19.23;;;17.40;;
15831;SDS011;8016;49.928;9.372;2023-05-23T05:41:26;19.07;;;17.03;;
15831;SDS011;8016;49.928;9.372;2023-05-23T05:43:52;20.03;;;17.00;;
15831;SDS011;8016;49.928;9.372;2023-05-23T05:46:18;18.10;;;16.40;;
15831;SDS011;8016;49.928;9.372;2023-05-23T05:48:44;17.67;;;16.03;;
15831;SDS011;8016;49.928;9.372;2023-05-23T05:51:11;15.93;;;14.43;;
15831;SDS011;8016;49.928;9.372;2023-05-23T05:53:37;15.53;;;14.13;;
15831;SDS011;8016;49.928;9.372;2023-05-23T05:56:03;14.77;;;13.30;;
15831;SDS011;8016;49.928;9.372;2023-05-23T05:58:29;16.43;;;14.60;;
15831;SDS011;8016;49.928;9.372;2023-05-23T06:00:55;14.43;;;13.13;;
15831;SDS011;8016;49.928;9.372;2023-05-23T06:03:21;13.83;;;12.53;;
15831;SDS011;8016;49.928;9.372;2023-05-23T06:05:48;15.63;;;14.03;;
15831;SDS011;8016;49.928;9.372;2023-05-23T06:08:14;13.53;;;12.20;;
15831;SDS011;8016;49.928;9.372;2023-05-23T06:10:40;14.53;;;13.13;;
15831;SDS011;8016;49.928;9.372;2023-05-23T06:13:06;12.00;;;10.80;;
15831;SDS011;8016;49.928;9.372;2023-05-23T06:15:32;12.10;;;11.00;;
15831;SDS011;8016;49.928;9.372;2023-05-23T06:17:58;12.63;;;11.43;;
15831;SDS011;8016;49.928;9.372;2023-05-23T06:20:23;12.10;;;10.33;;
15831;SDS011;8016;49.928;9.372;2023-05-23T06:22:49;10.97;;;9.93;;
15831;SDS011;8016;49.928;9.372;2023-05-23T06:25:15;12.07;;;10.90;;
15831;SDS011;8016;49.928;9.372;2023-05-23T06:27:41;12.40;;;11.10;;
15831;SDS011;8016;49.928;9.372;2023-05-23T06:30:10;10.90;;;9.80;;
15831;SDS011;8016;49.928;9.372;2023-05-23T06:32:36;11.27;;;10.20;;
15831;SDS011;8016;49.928;9.372;2023-05-23T06:35:02;10.70;;;8.73;;
15831;SDS011;8016;49.928;9.372;2023-05-23T06:37:28;10.53;;;9.53;;
15831;SDS011;8016;49.928;9.372;2023-05-23T06:39:54;11.67;;;9.37;;
15831;SDS011;8016;49.928;9.372;2023-05-23T06:42:20;11.23;;;10.23;;
15831;SDS011;8016;49.928;9.372;2023-05-23T06:44:46;10.87;;;9.90;;
15831;SDS011;8016;49.928;9.372;2023-05-23T06:47:12;10.87;;;9.77;;
15831;SDS011;8016;49.928;9.372;2023-05-23T06:49:38;11.40;;;10.17;;
15831;SDS011;8016;49.928;9.372;2023-05-23T06:52:04;12.23;;;10.97;;
15831;SDS011;8016;49.928;9.372;2023-05-23T06:54:30;11.63;;;10.53;;
15831;SDS011;8016;49.928;9.372;2023-05-23T06:56:56;12.10;;;11.00;;
15831;SDS011;8016;49.928;9.372;2023-05-23T06:59:22;13.13;;;11.93;;
15831;SDS011;8016;49.928;9.372;2023-05-23T07:01:48;13.77;;;12.27;;
15831;SDS011;8016;49.928;9.372;2023-05-23T07:04:14;15.23;;;13.80;;
15831;SDS011;8016;49.928;9.372;2023-05-23T07:06:40;16.67;;;14.97;;
15831;SDS011;8016;49.928;9.372;2023-05-23T07:09:06;15.83;;;13.30;;
15831;SDS011;8016;49.928;9.372;2023-05-23T07:11:32;14.63;;;13.03;;
15831;SDS011;8016;49.928;9.372;2023-05-23T07:13:59;15.17;;;13.57;;
15831;SDS011;8016;49.928;9.372;2023-05-23T07:16:25;15.97;;;14.03;;
15831;SDS011;8016;49.928;9.372;2023-05-23T07:18:51;13.53;;;12.13;;
15831;SDS011;8016;49.928;9.372;2023-05-23T07:21:17;14.77;;;13.27;;
15831;SDS011;8016;49.928;9.372;2023-05-23T07:23:43;14.83;;;13.23;;
15831;SDS011;8016;49.928;9.372;2023-05-23T07:26:09;14.07;;;12.73;;
15831;SDS011;8016;49.928;9.372;2023-05-23T07:28:35;15.23;;;11.77;;
15831;SDS011;8016;49.928;9.372;2023-05-23T07:31:01;12.10;;;11.00;;
15831;SDS011;8016;49.928;9.372;2023-05-23T07:33:27;12.40;;;11.20;;
15831;SDS011;8016;49.928;9.372;2023-05-23T07:35:53;12.03;;;10.87;;
15831;SDS011;8016;49.928;9.372;2023-05-23T07:38:19;12.30;;;11.20;;
15831;SDS011;8016;49.928;9.372;2023-05-23T07:40:45;11.93;;;10.83;;
15831;SDS011;8016;49.928;9.372;2023-05-23T07:43:11;12.90;;;11.53;;
15831;SDS011;8016;49.928;9.372;2023-05-23T07:45:37;13.07;;;10.20;;
15831;SDS011;8016;49.928;9.372;2023-05-23T07:48:03;11.07;;;10.07;;
15831;SDS011;8016;49.928;9.372;2023-05-23T07:50:29;10.97;;;9.87;;
15831;SDS011;8016;49.928;9.372;2023-05-23T07:52:55;14.17;;;9.67;;
15831;SDS011;8016;49.928;9.372;2023-05-23T07:55:21;10.07;;;9.07;;
15831;SDS011;8016;49.928;9.372;2023-05-23T07:57:48;9.40;;;8.60;;
15831;SDS011;8016;49.928;9.372;2023-05-23T08:00:14;7.97;;;7.27;;
15831;SDS011;8016;49.928;9.372;2023-05-23T08:02:40;9.27;;;8.23;;
15831;SDS011;8016;49.928;9.372;2023-05-23T08:05:06;8.43;;;7.63;;
15831;SDS011;8016;49.928;9.372;2023-05-23T08:07:33;7.53;;;6.83;;
15831;SDS011;8016;49.928;9.372;2023-05-23T08:09:59;7.93;;;7.23;;
15831;SDS011;8016;49.928;9.372;2023-05-23T08:12:25;7.23;;;6.63;;
15831;SDS011;8016;49.928;9.372;2023-05-23T08:14:51;7.00;;;6.00;;
15831;SDS011;8016;49.928;9.372;2023-05-23T08:17:17;7.03;;;6.43;;
15831;SDS011;8016;49.928;9.372;2023-05-23T08:19:43;6.30;;;5.70;;
15831;SDS011;8016;49.928;9.372;2023-05-23T08:22:09;9.37;;;6.03;;
15831;SDS011;8016;49.928;9.372;2023-05-23T08:24:35;6.77;;;6.13;;
15831;SDS011;8016;49.928;9.372;2023-05-23T08:27:01;6.73;;;6.13;;
15831;SDS011;8016;49.928;9.372;2023-05-23T08:29:26;5.97;;;5.47;;
15831;SDS011;8016;49.928;9.372;2023-05-23T08:31:52;5.87;;;5.30;;
15831;SDS011;8016;49.928;9.372;2023-05-23T08:34:18;6.90;;;6.20;;
15831;SDS011;8016;49.928;9.372;2023-05-23T08:36:44;9.03;;;6.40;;
15831;SDS011;8016;49.928;9.372;2023-05-23T08:39:10;6.03;;;5.53;;
15831;SDS011;8016;49.928;9.372;2023-05-23T08:41:37;6.60;;;6.00;;
15831;SDS011;8016;49.928;9.372;2023-05-23T08:44:04;7.77;;;7.07;;
15831;SDS011;8016;49.928;9.372;2023-05-23T08:46:30;7.83;;;7.03;;
15831;SDS011;8016;49.928;9.372;2023-05-23T08:48:57;7.97;;;7.00;;
15831;SDS011;8016;49.928;9.372;2023-05-23T08:51:25;8.73;;;7.73;;
15831;SDS011;8016;49.928;9.372;2023-05-23T08:53:51;9.87;;;7.47;;
15831;SDS011;8016;49.928;9.372;2023-05-23T08:56:20;10.43;;;7.33;;
15831;SDS011;8016;49.928;9.372;2023-05-23T08:58:46;6.73;;;6.13;;
15831;SDS011;8016;49.928;9.372;2023-05-23T09:01:13;9.57;;;6.30;;
15831;SDS011;8016;49.928;9.372;2023-05-23T09:03:42;5.90;;;5.40;;
15831;SDS011;8016;49.928;9.372;2023-05-23T09:06:08;7.90;;;6.40;;
15831;SDS011;8016;49.928;9.372;2023-05-23T09:08:35;6.13;;;5.53;;
15831;SDS011;8016;49.928;9.372;2023-05-23T09:11:02;7.00;;;6.30;;
15831;SDS011;8016;49.928;9.372;2023-05-23T09:13:32;6.57;;;5.43;;
15831;SDS011;8016;49.928;9.372;2023-05-23T09:18:25;4.83;;;4.27;;
15831;SDS011;8016;49.928;9.372;2023-05-23T09:20:51;4.77;;;4.27;;
15831;SDS011;8016;49.928;9.372;2023-05-23T09:23:17;4.53;;;4.13;;
15831;SDS011;8016;49.928;9.372;2023-05-23T09:25:46;5.50;;;5.00;;
15831;SDS011;8016;49.928;9.372;2023-05-23T09:28:12;5.37;;;4.87;;
15831;SDS011;8016;49.928;9.372;2023-05-23T09:30:38;5.73;;;4.67;;
15831;SDS011;8016;49.928;9.372;2023-05-23T09:33:04;5.37;;;4.87;;
15831;SDS011;8016;49.928;9.372;2023-05-23T09:35:30;5.40;;;4.90;;
15831;SDS011;8016;49.928;9.372;2023-05-23T09:37:56;5.00;;;4.60;;
15831;SDS011;8016;49.928;9.372;2023-05-23T09:40:27;5.00;;;4.60;;
15831;SDS011;8016;49.928;9.372;2023-05-23T09:42:54;5.63;;;5.23;;
15831;SDS011;8016;49.928;9.372;2023-05-23T09:45:20;5.47;;;4.40;;
15831;SDS011;8016;49.928;9.372;2023-05-23T09:47:53;5.73;;;5.23;;
15831;SDS011;8016;49.928;9.372;2023-05-23T09:50:22;6.30;;;5.70;;
15831;SDS011;8016;49.928;9.372;2023-05-23T09:52:48;6.20;;;5.70;;
15831;SDS011;8016;49.928;9.372;2023-05-23T09:55:15;6.53;;;5.90;;
15831;SDS011;8016;49.928;9.372;2023-05-23T09:57:41;6.77;;;6.17;;
15831;SDS011;8016;49.928;9.372;2023-05-23T10:00:08;6.87;;;6.17;;
15831;SDS011;8016;49.928;9.372;2023-05-23T10:02:54;5.97;;;5.47;;
15831;SDS011;8016;49.928;9.372;2023-05-23T10:05:30;6.60;;;6.10;;
15831;SDS011;8016;49.928;9.372;2023-05-23T10:07:59;6.23;;;5.73;;
15831;SDS011;8016;49.928;9.372;2023-05-23T10:10:27;6.20;;;5.70;;
15831;SDS011;8016;49.928;9.372;2023-05-23T10:12:56;8.10;;;6.40;;
15831;SDS011;8016;49.928;9.372;2023-05-23T10:15:23;7.13;;;6.10;;
15831;SDS011;8016;49.928;9.372;2023-05-23T10:17:55;6.90;;;6.30;;
15831;SDS011;8016;49.928;9.372;2023-05-23T10:20:24;6.87;;;5.83;;
15831;SDS011;8016;49.928;9.372;2023-05-23T10:22:50;7.60;;;6.90;;
15831;SDS011;8016;49.928;9.372;2023-05-23T10:25:16;6.77;;;6.23;;
15831;SDS011;8016;49.928;9.372;2023-05-23T10:27:43;6.80;;;5.50;;
15831;SDS011;8016;49.928;9.372;2023-05-23T10:30:09;6.57;;;5.67;;
15831;SDS011;8016;49.928;9.372;2023-05-23T10:32:36;5.43;;;5.00;;
15831;SDS011;8016;49.928;9.372;2023-05-23T10:37:49;5.00;;;4.57;;
15831;SDS011;8016;49.928;9.372;2023-05-23T10:45:57;5.33;;;4.90;;
15831;SDS011;8016;49.928;9.372;2023-05-23T10:48:40;5.77;;;5.27;;
15831;SDS011;8016;49.928;9.372;2023-05-23T10:51:06;5.83;;;5.33;;
15831;SDS011;8016;49.928;9.372;2023-05-23T10:53:37;6.23;;;5.70;;
15831;SDS011;8016;49.928;9.372;2023-05-23T10:56:03;9.83;;;5.37;;
15831;SDS011;8016;49.928;9.372;2023-05-23T10:58:30;6.23;;;5.73;;
15831;SDS011;8016;49.928;9.372;2023-05-23T11:01:00;6.50;;;5.90;;
15831;SDS011;8016;49.928;9.372;2023-05-23T11:03:33;6.57;;;6.03;;
15831;SDS011;8016;49.928;9.372;2023-05-23T11:06:00;6.53;;;6.03;;
15831;SDS011;8016;49.928;9.372;2023-05-23T11:08:26;6.63;;;6.03;;
15831;SDS011;8016;49.928;9.372;2023-05-23T11:11:03;6.80;;;6.20;;
15831;SDS011;8016;49.928;9.372;2023-05-23T11:16:24;4.57;;;4.17;;
15831;SDS011;8016;49.928;9.372;2023-05-23T11:18:50;4.40;;;4.00;;
15831;SDS011;8016;49.928;9.372;2023-05-23T11:21:16;5.73;;;4.03;;
15831;SDS011;8016;49.928;9.372;2023-05-23T11:23:42;4.90;;;3.80;;
15831;SDS011;8016;49.928;9.372;2023-05-23T11:28:56;4.20;;;3.80;;
15831;SDS011;8016;49.928;9.372;2023-05-23T11:31:22;4.20;;;3.80;;
15831;SDS011;8016;49.928;9.372;2023-05-23T11:33:51;3.73;;;3.43;;
15831;SDS011;8016;49.928;9.372;2023-05-23T11:36:17;4.23;;;3.83;;
15831;SDS011;8016;49.928;9.372;2023-05-23T11:38:45;4.23;;;3.60;;
15831;SDS011;8016;49.928;9.372;2023-05-23T11:41:12;3.80;;;3.50;;
15831;SDS011;8016;49.928;9.372;2023-05-23T11:43:48;4.00;;;3.57;;
15831;SDS011;8016;49.928;9.372;2023-05-23T11:46:14;5.27;;;3.90;;
15831;SDS011;8016;49.928;9.372;2023-05-23T11:48:43;3.90;;;3.60;;
15831;SDS011;8016;49.928;9.372;2023-05-23T11:51:09;4.10;;;3.70;;
15831;SDS011;8016;49.928;9.372;2023-05-23T11:53:35;3.80;;;3.50;;
15831;SDS011;8016;49.928;9.372;2023-05-23T11:56:02;4.83;;;3.50;;
15831;SDS011;8016;49.928;9.372;2023-05-23T12:01:00;5.97;;;3.50;;
15831;SDS011;8016;49.928;9.372;2023-05-23T12:03:30;3.10;;;2.90;;
15831;SDS011;8016;49.928;9.372;2023-05-23T12:05:56;4.77;;;3.20;;
15831;SDS011;8016;49.928;9.372;2023-05-23T12:08:23;3.40;;;3.10;;
15831;SDS011;8016;49.928;9.372;2023-05-23T12:10:52;4.43;;;3.70;;
15831;SDS011;8016;49.928;9.372;2023-05-23T12:13:19;4.60;;;3.87;;
15831;SDS011;8016;49.928;9.372;2023-05-23T12:15:45;4.10;;;3.67;;
15831;SDS011;8016;49.928;9.372;2023-05-23T12:18:11;3.70;;;3.40;;
15831;SDS011;8016;49.928;9.372;2023-05-23T12:20:39;4.67;;;3.30;;
15831;SDS011;8016;49.928;9.372;2023-05-23T12:23:05;3.80;;;3.50;;
15831;SDS011;8016;49.928;9.372;2023-05-23T12:25:37;3.13;;;2.93;;
15831;SDS011;8016;49.928;9.372;2023-05-23T12:28:03;3.23;;;2.93;;
15831;SDS011;8016;49.928;9.372;2023-05-23T12:30:39;3.43;;;2.53;;
15831;SDS011;8016;49.928;9.372;2023-05-23T12:33:06;2.90;;;2.60;;
15831;SDS011;8016;49.928;9.372;2023-05-23T12:35:32;2.50;;;2.30;;
15831;SDS011;8016;49.928;9.372;2023-05-23T12:37:58;2.90;;;2.70;;
15831;SDS011;8016;49.928;9.372;2023-05-23T12:40:24;2.67;;;2.47;;
15831;SDS011;8016;49.928;9.372;2023-05-23T12:42:51;2.93;;;2.63;;
15831;SDS011;8016;49.928;9.372;2023-05-23T12:45:18;2.50;;;2.30;;
15831;SDS011;8016;49.928;9.372;2023-05-23T12:47:44;2.73;;;2.20;;
15831;SDS011;8016;49.928;9.372;2023-05-23T12:50:10;2.50;;;2.30;;
15831;SDS011;8016;49.928;9.372;2023-05-23T12:52:37;2.87;;;2.17;;
15831;SDS011;8016;49.928;9.372;2023-05-23T12:55:04;2.40;;;2.20;;
15831;SDS011;8016;49.928;9.372;2023-05-23T12:57:30;3.40;;;2.27;;
15831;SDS011;8016;49.928;9.372;2023-05-23T12:59:56;3.30;;;2.27;;
15831;SDS011;8016;49.928;9.372;2023-05-23T13:02:23;2.17;;;1.93;;
15831;SDS011;8016;49.928;9.372;2023-05-23T13:04:49;2.73;;;1.83;;
15831;SDS011;8016;49.928;9.372;2023-05-23T13:07:15;2.93;;;1.97;;
15831;SDS011;8016;49.928;9.372;2023-05-23T13:09:41;2.23;;;2.00;;
15831;SDS011;8016;49.928;9.372;2023-05-23T13:12:07;2.27;;;1.90;;
15831;SDS011;8016;49.928;9.372;2023-05-23T13:14:33;1.80;;;1.60;;
15831;SDS011;8016;49.928;9.372;2023-05-23T13:16:59;1.87;;;1.77;;
15831;SDS011;8016;49.928;9.372;2023-05-23T13:19:25;2.00;;;1.67;;
15831;SDS011;8016;49.928;9.372;2023-05-23T13:21:51;1.67;;;1.57;;
15831;SDS011;8016;49.928;9.372;2023-05-23T13:24:17;1.70;;;1.60;;
15831;SDS011;8016;49.928;9.372;2023-05-23T13:26:43;3.17;;;1.90;;
15831;SDS011;8016;49.928;9.372;2023-05-23T13:29:09;1.67;;;1.57;;
15831;SDS011;8016;49.928;9.372;2023-05-23T13:31:34;1.70;;;1.60;;
15831;SDS011;8016;49.928;9.372;2023-05-23T13:34:00;2.55;;;1.90;;
15831;SDS011;8016;49.928;9.372;2023-05-23T13:36:26;2.10;;;1.60;;
15831;SDS011;8016;49.928;9.372;2023-05-23T13:38:53;1.80;;;1.70;;
15831;SDS011;8016;49.928;9.372;2023-05-23T13:41:19;2.63;;;1.90;;
15831;SDS011;8016;49.928;9.372;2023-05-23T13:43:45;2.03;;;1.90;;
15831;SDS011;8016;49.928;9.372;2023-05-23T13:46:12;3.47;;;2.10;;
15831;SDS011;8016;49.928;9.372;2023-05-23T13:48:38;1.83;;;1.60;;
15831;SDS011;8016;49.928;9.372;2023-05-23T13:51:04;1.73;;;1.63;;
15831;SDS011;8016;49.928;9.372;2023-05-23T13:53:30;1.83;;;1.70;;
15831;SDS011;8016;49.928;9.372;2023-05-23T13:55:56;1.60;;;1.50;;
15831;SDS011;8016;49.928;9.372;2023-05-23T13:58:22;1.80;;;1.70;;
15831;SDS011;8016;49.928;9.372;2023-05-23T14:00:48;1.87;;;1.50;;
15831;SDS011;8016;49.928;9.372;2023-05-23T14:03:14;1.40;;;1.30;;
15831;SDS011;8016;49.928;9.372;2023-05-23T14:05:40;2.87;;;1.37;;
15831;SDS011;8016;49.928;9.372;2023-05-23T14:08:06;1.93;;;1.57;;
15831;SDS011;8016;49.928;9.372;2023-05-23T14:10:32;2.83;;;1.50;;
15831;SDS011;8016;49.928;9.372;2023-05-23T14:12:58;1.40;;;1.30;;
15831;SDS011;8016;49.928;9.372;2023-05-23T14:15:25;1.80;;;1.53;;
15831;SDS011;8016;49.928;9.372;2023-05-23T14:17:52;3.47;;;1.50;;
15831;SDS011;8016;49.928;9.372;2023-05-23T14:20:20;1.50;;;1.40;;
15831;SDS011;8016;49.928;9.372;2023-05-23T14:22:46;1.83;;;1.57;;
15831;SDS011;8016;49.928;9.372;2023-05-23T14:25:13;1.73;;;1.50;;
15831;SDS011;8016;49.928;9.372;2023-05-23T14:27:38;1.87;;;1.47;;
15831;SDS011;8016;49.928;9.372;2023-05-23T14:30:05;1.53;;;1.43;;
15831;SDS011;8016;49.928;9.372;2023-05-23T14:32:31;1.60;;;1.50;;
15831;SDS011;8016;49.928;9.372;2023-05-23T14:35:02;1.67;;;1.20;;
15831;SDS011;8016;49.928;9.372;2023-05-23T14:37:28;2.37;;;1.30;;
15831;SDS011;8016;49.928;9.372;2023-05-23T14:39:54;1.30;;;1.20;;
15831;SDS011;8016;49.928;9.372;2023-05-23T14:42:20;0.93;;;0.93;;
15831;SDS011;8016;49.928;9.372;2023-05-23T14:44:46;1.33;;;1.23;;
15831;SDS011;8016;49.928;9.372;2023-05-23T14:47:12;1.43;;;1.30;;
15831;SDS011;8016;49.928;9.372;2023-05-23T14:49:38;1.87;;;1.50;;
15831;SDS011;8016;49.928;9.372;2023-05-23T14:52:04;1.43;;;1.33;;
15831;SDS011;8016;49.928;9.372;2023-05-23T14:54:30;1.40;;;1.20;;
15831;SDS011;8016;49.928;9.372;2023-05-23T14:56:57;1.20;;;1.10;;
15831;SDS011;8016;49.928;9.372;2023-05-23T14:59:22;2.35;;;1.30;;
15831;SDS011;8016;49.928;9.372;2023-05-23T15:01:48;1.60;;;1.50;;
15831;SDS011;8016;49.928;9.372;2023-05-23T15:04:14;2.53;;;1.10;;
15831;SDS011;8016;49.928;9.372;2023-05-23T15:06:41;1.70;;;1.60;;
15831;SDS011;8016;49.928;9.372;2023-05-23T15:09:07;1.07;;;1.00;;
15831;SDS011;8016;49.928;9.372;2023-05-23T15:11:34;2.37;;;1.17;;
15831;SDS011;8016;49.928;9.372;2023-05-23T15:14:02;3.00;;;1.77;;